sensor_id;sensor_type;location;lat;lon;timestamp;P1;durP1;ratioP1;P2;durP2;ratioP2
10013;SDS011;45684;48.358;10.746;2023-07-20T00:01:11;4.93;;;4.57;;
10013;SDS011;45684;48.358;10.746;2023-07-20T00:03:57;4.73;;;4.43;;
10013;SDS011;45684;48.358;10.746;2023-07-20T00:06:26;5.00;;;4.60;;
10013;SDS011;45684;48.358;10.746;2023-07-20T00:08:54;5.03;;;4.63;;
10013;SDS011;45684;48.358;10.746;2023-07-20T00:11:25;4.93;;;4.50;;
10013;SDS011;45684;48.358;10.746;2023-07-20T00:13:54;4.55;;;4.22;;
10013;SDS011;45684;48.358;10.746;2023-07-20T00:16:22;6.23;;;4.60;;
10013;SDS011;45684;48.358;10.746;2023-07-20T00:18:50;4.50;;;4.20;;
10013;SDS011;45684;48.358;10.746;2023-07-20T00:21:18;4.80;;;4.40;;
10013;SDS011;45684;48.358;10.746;2023-07-20T00:23:47;4.90;;;4.50;;
10013;SDS011;45684;48.358;10.746;2023-07-20T00:26:15;4.80;;;4.60;;
10013;SDS011;45684;48.358;10.746;2023-07-20T00:28:45;4.20;;;3.90;;
10013;SDS011;45684;48.358;10.746;2023-07-20T00:31:13;4.57;;;4.28;;
10013;SDS011;45684;48.358;10.746;2023-07-20T00:33:41;4.83;;;4.43;;
10013;SDS011;45684;48.358;10.746;2023-07-20T00:36:09;4.93;;;4.60;;
10013;SDS011;45684;48.358;10.746;2023-07-20T00:38:37;5.33;;;4.83;;
10013;SDS011;45684;48.358;10.746;2023-07-20T00:41:06;4.47;;;4.27;;
10013;SDS011;45684;48.358;10.746;2023-07-20T00:43:34;4.47;;;4.17;;
10013;SDS011;45684;48.358;10.746;2023-07-20T00:46:02;4.65;;;4.35;;
10013;SDS011;45684;48.358;10.746;2023-07-20T00:48:31;4.53;;;4.20;;
10013;SDS011;45684;48.358;10.746;2023-07-20T00:50:59;4.60;;;4.20;;
10013;SDS011;45684;48.358;10.746;2023-07-20T00:53:29;4.43;;;4.23;;
10013;SDS011;45684;48.358;10.746;2023-07-20T00:55:59;4.80;;;4.40;;
10013;SDS011;45684;48.358;10.746;2023-07-20T00:58:29;4.90;;;4.57;;
10013;SDS011;45684;48.358;10.746;2023-07-20T01:00:57;5.07;;;4.57;;
10013;SDS011;45684;48.358;10.746;2023-07-20T01:03:24;4.73;;;4.40;;
10013;SDS011;45684;48.358;10.746;2023-07-20T01:05:54;5.17;;;4.70;;
10013;SDS011;45684;48.358;10.746;2023-07-20T01:08:28;4.57;;;4.27;;
10013;SDS011;45684;48.358;10.746;2023-07-20T01:11:03;4.97;;;4.67;;
10013;SDS011;45684;48.358;10.746;2023-07-20T01:13:38;5.20;;;4.43;;
10013;SDS011;45684;48.358;10.746;2023-07-20T01:16:07;4.57;;;4.37;;
10013;SDS011;45684;48.358;10.746;2023-07-20T01:18:35;4.57;;;4.27;;
10013;SDS011;45684;48.358;10.746;2023-07-20T01:21:05;4.60;;;4.30;;
10013;SDS011;45684;48.358;10.746;2023-07-20T01:26:46;4.80;;;4.60;;
10013;SDS011;45684;48.358;10.746;2023-07-20T01:29:33;4.37;;;4.17;;
10013;SDS011;45684;48.358;10.746;2023-07-20T01:32:13;4.80;;;4.10;;
10013;SDS011;45684;48.358;10.746;2023-07-20T01:34:44;4.83;;;4.53;;
10013;SDS011;45684;48.358;10.746;2023-07-20T01:37:15;4.57;;;4.37;;
10013;SDS011;45684;48.358;10.746;2023-07-20T01:39:46;4.53;;;4.33;;
10013;SDS011;45684;48.358;10.746;2023-07-20T01:42:14;4.73;;;4.43;;
10013;SDS011;45684;48.358;10.746;2023-07-20T01:44:42;4.57;;;4.37;;
10013;SDS011;45684;48.358;10.746;2023-07-20T01:47:10;4.90;;;4.63;;
10013;SDS011;45684;48.358;10.746;2023-07-20T01:49:39;4.90;;;4.60;;
10013;SDS011;45684;48.358;10.746;2023-07-20T01:52:07;4.90;;;4.40;;
10013;SDS011;45684;48.358;10.746;2023-07-20T01:54:35;4.83;;;4.50;;
10013;SDS011;45684;48.358;10.746;2023-07-20T01:57:03;4.70;;;4.40;;
10013;SDS011;45684;48.358;10.746;2023-07-20T01:59:31;4.90;;;4.57;;
10013;SDS011;45684;48.358;10.746;2023-07-20T02:01:59;5.10;;;4.80;;
10013;SDS011;45684;48.358;10.746;2023-07-20T02:04:27;5.87;;;4.70;;
10013;SDS011;45684;48.358;10.746;2023-07-20T02:06:56;5.07;;;4.77;;
10013;SDS011;45684;48.358;10.746;2023-07-20T02:09:24;5.03;;;4.70;;
10013;SDS011;45684;48.358;10.746;2023-07-20T02:11:52;5.10;;;4.80;;
10013;SDS011;45684;48.358;10.746;2023-07-20T02:14:20;5.07;;;4.77;;
10013;SDS011;45684;48.358;10.746;2023-07-20T02:16:49;4.77;;;4.43;;
10013;SDS011;45684;48.358;10.746;2023-07-20T02:19:19;4.90;;;4.60;;
10013;SDS011;45684;48.358;10.746;2023-07-20T02:21:48;5.50;;;4.83;;
10013;SDS011;45684;48.358;10.746;2023-07-20T02:24:17;5.20;;;4.83;;
10013;SDS011;45684;48.358;10.746;2023-07-20T02:26:45;5.50;;;5.00;;
10013;SDS011;45684;48.358;10.746;2023-07-20T02:29:13;5.10;;;4.80;;
10013;SDS011;45684;48.358;10.746;2023-07-20T02:31:40;5.10;;;4.70;;
10013;SDS011;45684;48.358;10.746;2023-07-20T02:34:09;5.60;;;5.20;;
10013;SDS011;45684;48.358;10.746;2023-07-20T02:36:37;5.27;;;4.80;;
10013;SDS011;45684;48.358;10.746;2023-07-20T02:39:05;5.70;;;4.80;;
10013;SDS011;45684;48.358;10.746;2023-07-20T02:41:34;5.10;;;4.90;;
10013;SDS011;45684;48.358;10.746;2023-07-20T02:44:02;5.00;;;4.60;;
10013;SDS011;45684;48.358;10.746;2023-07-20T02:46:30;5.17;;;4.67;;
10013;SDS011;45684;48.358;10.746;2023-07-20T02:48:59;5.37;;;4.97;;
10013;SDS011;45684;48.358;10.746;2023-07-20T02:51:27;5.43;;;5.03;;
10013;SDS011;45684;48.358;10.746;2023-07-20T02:53:55;5.40;;;5.13;;
10013;SDS011;45684;48.358;10.746;2023-07-20T02:56:23;4.80;;;4.50;;
10013;SDS011;45684;48.358;10.746;2023-07-20T02:58:52;5.00;;;4.60;;
10013;SDS011;45684;48.358;10.746;2023-07-20T03:01:20;5.13;;;4.83;;
10013;SDS011;45684;48.358;10.746;2023-07-20T03:03:49;5.00;;;4.60;;
10013;SDS011;45684;48.358;10.746;2023-07-20T03:06:17;5.30;;;4.80;;
10013;SDS011;45684;48.358;10.746;2023-07-20T03:08:45;5.00;;;4.70;;
10013;SDS011;45684;48.358;10.746;2023-07-20T03:11:15;4.93;;;4.63;;
10013;SDS011;45684;48.358;10.746;2023-07-20T03:13:43;5.40;;;5.00;;
10013;SDS011;45684;48.358;10.746;2023-07-20T03:16:14;5.10;;;4.70;;
10013;SDS011;45684;48.358;10.746;2023-07-20T03:18:47;5.80;;;5.40;;
10013;SDS011;45684;48.358;10.746;2023-07-20T03:21:15;5.10;;;4.80;;
10013;SDS011;45684;48.358;10.746;2023-07-20T03:23:43;5.20;;;4.90;;
10013;SDS011;45684;48.358;10.746;2023-07-20T03:26:11;5.53;;;5.03;;
10013;SDS011;45684;48.358;10.746;2023-07-20T03:28:38;5.70;;;5.40;;
10013;SDS011;45684;48.358;10.746;2023-07-20T03:31:08;5.63;;;5.33;;
10013;SDS011;45684;48.358;10.746;2023-07-20T03:33:40;6.07;;;5.67;;
10013;SDS011;45684;48.358;10.746;2023-07-20T03:36:08;5.77;;;5.47;;
10013;SDS011;45684;48.358;10.746;2023-07-20T03:38:37;5.97;;;5.57;;
10013;SDS011;45684;48.358;10.746;2023-07-20T03:41:04;5.93;;;5.60;;
10013;SDS011;45684;48.358;10.746;2023-07-20T03:43:32;5.90;;;5.60;;
10013;SDS011;45684;48.358;10.746;2023-07-20T03:46:00;6.03;;;5.63;;
10013;SDS011;45684;48.358;10.746;2023-07-20T03:48:33;5.67;;;5.30;;
10013;SDS011;45684;48.358;10.746;2023-07-20T03:51:04;5.93;;;5.50;;
10013;SDS011;45684;48.358;10.746;2023-07-20T03:53:32;5.47;;;5.10;;
10013;SDS011;45684;48.358;10.746;2023-07-20T03:55:59;5.77;;;5.33;;
10013;SDS011;45684;48.358;10.746;2023-07-20T03:58:27;5.43;;;5.20;;
10013;SDS011;45684;48.358;10.746;2023-07-20T04:00:56;5.47;;;5.17;;
10013;SDS011;45684;48.358;10.746;2023-07-20T04:03:24;5.10;;;4.90;;
10013;SDS011;45684;48.358;10.746;2023-07-20T04:05:53;5.20;;;4.80;;
10013;SDS011;45684;48.358;10.746;2023-07-20T04:08:23;5.47;;;5.07;;
10013;SDS011;45684;48.358;10.746;2023-07-20T04:10:51;4.90;;;4.70;;
10013;SDS011;45684;48.358;10.746;2023-07-20T04:13:19;5.47;;;5.07;;
10013;SDS011;45684;48.358;10.746;2023-07-20T04:15:47;5.57;;;5.10;;
10013;SDS011;45684;48.358;10.746;2023-07-20T04:18:15;5.53;;;5.13;;
10013;SDS011;45684;48.358;10.746;2023-07-20T04:20:43;5.33;;;5.03;;
10013;SDS011;45684;48.358;10.746;2023-07-20T04:23:11;5.40;;;5.00;;
10013;SDS011;45684;48.358;10.746;2023-07-20T04:25:40;5.80;;;5.30;;
10013;SDS011;45684;48.358;10.746;2023-07-20T04:28:11;5.67;;;5.30;;
10013;SDS011;45684;48.358;10.746;2023-07-20T04:30:44;5.60;;;5.30;;
10013;SDS011;45684;48.358;10.746;2023-07-20T04:33:12;5.50;;;5.20;;
10013;SDS011;45684;48.358;10.746;2023-07-20T04:35:44;5.70;;;5.30;;
10013;SDS011;45684;48.358;10.746;2023-07-20T04:38:16;5.70;;;5.30;;
10013;SDS011;45684;48.358;10.746;2023-07-20T04:40:49;5.93;;;5.37;;
10013;SDS011;45684;48.358;10.746;2023-07-20T04:43:17;5.50;;;5.20;;
10013;SDS011;45684;48.358;10.746;2023-07-20T04:45:46;5.73;;;5.33;;
10013;SDS011;45684;48.358;10.746;2023-07-20T04:48:15;5.67;;;5.37;;
10013;SDS011;45684;48.358;10.746;2023-07-20T04:50:51;5.67;;;5.37;;
10013;SDS011;45684;48.358;10.746;2023-07-20T04:53:19;5.90;;;5.60;;
10013;SDS011;45684;48.358;10.746;2023-07-20T04:55:49;5.57;;;5.27;;
10013;SDS011;45684;48.358;10.746;2023-07-20T04:58:22;6.10;;;5.70;;
10013;SDS011;45684;48.358;10.746;2023-07-20T05:00:52;6.17;;;5.77;;
10013;SDS011;45684;48.358;10.746;2023-07-20T05:03:20;5.70;;;5.40;;
10013;SDS011;45684;48.358;10.746;2023-07-20T05:05:48;5.90;;;5.50;;
10013;SDS011;45684;48.358;10.746;2023-07-20T05:08:16;6.20;;;5.80;;
10013;SDS011;45684;48.358;10.746;2023-07-20T05:10:45;6.13;;;5.73;;
10013;SDS011;45684;48.358;10.746;2023-07-20T05:13:15;5.90;;;5.50;;
10013;SDS011;45684;48.358;10.746;2023-07-20T05:15:43;5.80;;;5.50;;
10013;SDS011;45684;48.358;10.746;2023-07-20T05:18:14;6.30;;;5.90;;
10013;SDS011;45684;48.358;10.746;2023-07-20T05:20:46;6.03;;;5.70;;
10013;SDS011;45684;48.358;10.746;2023-07-20T05:23:17;5.97;;;5.67;;
10013;SDS011;45684;48.358;10.746;2023-07-20T05:25:47;6.10;;;5.60;;
10013;SDS011;45684;48.358;10.746;2023-07-20T05:28:23;6.70;;;6.20;;
10013;SDS011;45684;48.358;10.746;2023-07-20T05:30:51;6.00;;;5.60;;
10013;SDS011;45684;48.358;10.746;2023-07-20T05:33:19;6.20;;;5.80;;
10013;SDS011;45684;48.358;10.746;2023-07-20T05:35:46;5.73;;;5.47;;
10013;SDS011;45684;48.358;10.746;2023-07-20T05:38:14;5.63;;;5.33;;
10013;SDS011;45684;48.358;10.746;2023-07-20T05:40:43;6.23;;;5.73;;
10013;SDS011;45684;48.358;10.746;2023-07-20T05:43:13;5.60;;;5.30;;
10013;SDS011;45684;48.358;10.746;2023-07-20T05:45:42;6.03;;;5.67;;
10013;SDS011;45684;48.358;10.746;2023-07-20T05:48:11;5.57;;;5.23;;
10013;SDS011;45684;48.358;10.746;2023-07-20T05:50:41;5.93;;;5.50;;
10013;SDS011;45684;48.358;10.746;2023-07-20T05:53:09;6.40;;;5.87;;
10013;SDS011;45684;48.358;10.746;2023-07-20T05:55:37;6.53;;;5.43;;
10013;SDS011;45684;48.358;10.746;2023-07-20T05:58:06;5.60;;;5.30;;
10013;SDS011;45684;48.358;10.746;2023-07-20T06:00:33;5.63;;;5.13;;
10013;SDS011;45684;48.358;10.746;2023-07-20T06:03:03;5.80;;;5.30;;
10013;SDS011;45684;48.358;10.746;2023-07-20T06:05:31;5.60;;;5.20;;
10013;SDS011;45684;48.358;10.746;2023-07-20T06:07:58;5.17;;;4.87;;
10013;SDS011;45684;48.358;10.746;2023-07-20T06:10:27;5.70;;;5.30;;
10013;SDS011;45684;48.358;10.746;2023-07-20T06:12:55;5.57;;;5.20;;
10013;SDS011;45684;48.358;10.746;2023-07-20T06:15:24;5.17;;;4.83;;
10013;SDS011;45684;48.358;10.746;2023-07-20T06:17:54;6.00;;;5.50;;
10013;SDS011;45684;48.358;10.746;2023-07-20T06:20:24;5.60;;;5.30;;
10013;SDS011;45684;48.358;10.746;2023-07-20T06:22:52;5.40;;;5.10;;
10013;SDS011;45684;48.358;10.746;2023-07-20T06:25:20;5.50;;;5.10;;
10013;SDS011;45684;48.358;10.746;2023-07-20T06:27:48;5.17;;;4.90;;
10013;SDS011;45684;48.358;10.746;2023-07-20T06:30:17;4.97;;;4.67;;
10013;SDS011;45684;48.358;10.746;2023-07-20T06:32:45;7.27;;;5.10;;
10013;SDS011;45684;48.358;10.746;2023-07-20T06:35:13;5.53;;;5.03;;
10013;SDS011;45684;48.358;10.746;2023-07-20T06:37:48;5.83;;;5.33;;
10013;SDS011;45684;48.358;10.746;2023-07-20T06:40:16;5.33;;;5.03;;
10013;SDS011;45684;48.358;10.746;2023-07-20T06:42:46;5.40;;;5.10;;
10013;SDS011;45684;48.358;10.746;2023-07-20T06:45:17;5.20;;;4.90;;
10013;SDS011;45684;48.358;10.746;2023-07-20T06:47:45;5.30;;;5.00;;
10013;SDS011;45684;48.358;10.746;2023-07-20T06:50:13;5.80;;;5.30;;
10013;SDS011;45684;48.358;10.746;2023-07-20T06:52:43;5.53;;;5.13;;
10013;SDS011;45684;48.358;10.746;2023-07-20T06:55:15;5.50;;;5.20;;
10013;SDS011;45684;48.358;10.746;2023-07-20T06:57:49;5.20;;;4.83;;
10013;SDS011;45684;48.358;10.746;2023-07-20T07:00:17;5.90;;;5.40;;
10013;SDS011;45684;48.358;10.746;2023-07-20T07:02:45;5.67;;;5.27;;
10013;SDS011;45684;48.358;10.746;2023-07-20T07:05:16;5.30;;;5.00;;
10013;SDS011;45684;48.358;10.746;2023-07-20T07:07:46;5.22;;;4.93;;
10013;SDS011;45684;48.358;10.746;2023-07-20T07:10:16;5.10;;;4.90;;
10013;SDS011;45684;48.358;10.746;2023-07-20T07:12:44;5.40;;;5.10;;
10013;SDS011;45684;48.358;10.746;2023-07-20T07:15:12;5.20;;;4.97;;
10013;SDS011;45684;48.358;10.746;2023-07-20T07:17:40;5.72;;;5.22;;
10013;SDS011;45684;48.358;10.746;2023-07-20T07:20:10;5.53;;;5.03;;
10013;SDS011;45684;48.358;10.746;2023-07-20T07:22:45;5.50;;;5.00;;
10013;SDS011;45684;48.358;10.746;2023-07-20T07:25:13;5.00;;;4.60;;
10013;SDS011;45684;48.358;10.746;2023-07-20T07:27:49;5.35;;;4.95;;
10013;SDS011;45684;48.358;10.746;2023-07-20T07:30:18;5.13;;;4.82;;
10013;SDS011;45684;48.358;10.746;2023-07-20T07:32:46;5.18;;;4.78;;
10013;SDS011;45684;48.358;10.746;2023-07-20T07:35:15;5.68;;;5.28;;
10013;SDS011;45684;48.358;10.746;2023-07-20T07:37:43;5.15;;;4.75;;
10013;SDS011;45684;48.358;10.746;2023-07-20T07:40:32;5.38;;;4.97;;
10013;SDS011;45684;48.358;10.746;2023-07-20T07:43:01;5.63;;;5.32;;
10013;SDS011;45684;48.358;10.746;2023-07-20T07:45:30;5.40;;;4.93;;
10013;SDS011;45684;48.358;10.746;2023-07-20T07:47:58;5.53;;;5.03;;
10013;SDS011;45684;48.358;10.746;2023-07-20T07:50:25;5.57;;;5.07;;
10013;SDS011;45684;48.358;10.746;2023-07-20T07:52:54;4.95;;;4.60;;
10013;SDS011;45684;48.358;10.746;2023-07-20T07:55:23;4.90;;;4.60;;
10013;SDS011;45684;48.358;10.746;2023-07-20T07:57:53;4.65;;;4.40;;
10013;SDS011;45684;48.358;10.746;2023-07-20T08:00:22;5.00;;;4.60;;
10013;SDS011;45684;48.358;10.746;2023-07-20T08:02:50;4.95;;;4.65;;
10013;SDS011;45684;48.358;10.746;2023-07-20T08:05:18;4.82;;;4.60;;
10013;SDS011;45684;48.358;10.746;2023-07-20T08:07:46;4.90;;;4.60;;
10013;SDS011;45684;48.358;10.746;2023-07-20T08:10:14;5.00;;;4.70;;
10013;SDS011;45684;48.358;10.746;2023-07-20T08:12:42;5.10;;;4.80;;
10013;SDS011;45684;48.358;10.746;2023-07-20T08:15:10;5.00;;;4.75;;
10013;SDS011;45684;48.358;10.746;2023-07-20T08:17:40;5.55;;;5.25;;
10013;SDS011;45684;48.358;10.746;2023-07-20T08:20:09;13.10;;;6.03;;
10013;SDS011;45684;48.358;10.746;2023-07-20T08:22:38;5.40;;;5.10;;
10013;SDS011;45684;48.358;10.746;2023-07-20T08:25:07;20.47;;;6.90;;
10013;SDS011;45684;48.358;10.746;2023-07-20T08:27:36;5.67;;;5.30;;
10013;SDS011;45684;48.358;10.746;2023-07-20T08:30:05;5.70;;;5.20;;
10013;SDS011;45684;48.358;10.746;2023-07-20T08:32:34;5.77;;;5.37;;
10013;SDS011;45684;48.358;10.746;2023-07-20T08:35:03;6.47;;;5.50;;
10013;SDS011;45684;48.358;10.746;2023-07-20T08:37:32;5.00;;;4.70;;
10013;SDS011;45684;48.358;10.746;2023-07-20T08:40:00;5.40;;;5.00;;
10013;SDS011;45684;48.358;10.746;2023-07-20T08:42:28;5.20;;;4.80;;
10013;SDS011;45684;48.358;10.746;2023-07-20T08:44:56;5.40;;;5.10;;
10013;SDS011;45684;48.358;10.746;2023-07-20T08:47:25;5.37;;;4.97;;
10013;SDS011;45684;48.358;10.746;2023-07-20T08:49:54;5.35;;;5.05;;
10013;SDS011;45684;48.358;10.746;2023-07-20T08:52:24;5.78;;;5.38;;
10013;SDS011;45684;48.358;10.746;2023-07-20T08:54:52;5.25;;;4.95;;
10013;SDS011;45684;48.358;10.746;2023-07-20T08:57:20;5.80;;;5.50;;
10013;SDS011;45684;48.358;10.746;2023-07-20T08:59:49;5.22;;;4.93;;
10013;SDS011;45684;48.358;10.746;2023-07-20T09:02:19;5.30;;;5.00;;
10013;SDS011;45684;48.358;10.746;2023-07-20T09:04:51;5.40;;;5.00;;
10013;SDS011;45684;48.358;10.746;2023-07-20T09:07:22;5.35;;;5.00;;
10013;SDS011;45684;48.358;10.746;2023-07-20T09:09:52;5.30;;;5.00;;
10013;SDS011;45684;48.358;10.746;2023-07-20T09:12:25;5.32;;;5.00;;
10013;SDS011;45684;48.358;10.746;2023-07-20T09:14:53;4.55;;;4.35;;
10013;SDS011;45684;48.358;10.746;2023-07-20T09:17:25;5.10;;;4.80;;
10013;SDS011;45684;48.358;10.746;2023-07-20T09:19:55;5.05;;;4.65;;
10013;SDS011;45684;48.358;10.746;2023-07-20T09:22:29;4.88;;;4.57;;
10013;SDS011;45684;48.358;10.746;2023-07-20T09:24:59;4.95;;;4.65;;
10013;SDS011;45684;48.358;10.746;2023-07-20T09:27:34;5.10;;;4.75;;
10013;SDS011;45684;48.358;10.746;2023-07-20T09:38:34;4.95;;;4.65;;
10013;SDS011;45684;48.358;10.746;2023-07-20T09:41:24;4.38;;;4.18;;
10013;SDS011;45684;48.358;10.746;2023-07-20T09:43:55;5.55;;;5.10;;
10013;SDS011;45684;48.358;10.746;2023-07-20T09:46:23;4.90;;;4.40;;
10013;SDS011;45684;48.358;10.746;2023-07-20T09:48:54;4.93;;;4.63;;
10013;SDS011;45684;48.358;10.746;2023-07-20T09:51:25;5.18;;;4.78;;
10013;SDS011;45684;48.358;10.746;2023-07-20T09:53:54;5.55;;;5.10;;
10013;SDS011;45684;48.358;10.746;2023-07-20T09:56:22;4.95;;;4.68;;
10013;SDS011;45684;48.358;10.746;2023-07-20T09:58:53;5.45;;;5.15;;
10013;SDS011;45684;48.358;10.746;2023-07-20T10:01:21;4.70;;;4.40;;
10013;SDS011;45684;48.358;10.746;2023-07-20T10:03:52;4.80;;;4.50;;
10013;SDS011;45684;48.358;10.746;2023-07-20T10:06:23;5.20;;;4.85;;
10013;SDS011;45684;48.358;10.746;2023-07-20T10:08:52;4.80;;;4.60;;
10013;SDS011;45684;48.358;10.746;2023-07-20T10:11:21;4.95;;;4.63;;
10013;SDS011;45684;48.358;10.746;2023-07-20T10:13:54;4.78;;;4.47;;
10013;SDS011;45684;48.358;10.746;2023-07-20T10:16:26;4.90;;;4.50;;
10013;SDS011;45684;48.358;10.746;2023-07-20T10:19:03;5.10;;;4.80;;
10013;SDS011;45684;48.358;10.746;2023-07-20T10:21:40;4.72;;;4.43;;
10013;SDS011;45684;48.358;10.746;2023-07-20T10:24:09;4.40;;;4.20;;
10013;SDS011;45684;48.358;10.746;2023-07-20T10:26:39;5.35;;;4.95;;
10013;SDS011;45684;48.358;10.746;2023-07-20T10:29:09;4.05;;;3.85;;
10013;SDS011;45684;48.358;10.746;2023-07-20T10:31:37;4.45;;;4.25;;
10013;SDS011;45684;48.358;10.746;2023-07-20T10:34:05;5.10;;;4.70;;
10013;SDS011;45684;48.358;10.746;2023-07-20T10:36:33;4.20;;;4.00;;
10013;SDS011;45684;48.358;10.746;2023-07-20T10:39:21;4.80;;;4.50;;
10013;SDS011;45684;48.358;10.746;2023-07-20T10:41:50;4.80;;;4.50;;
10013;SDS011;45684;48.358;10.746;2023-07-20T10:44:29;4.70;;;4.40;;
10013;SDS011;45684;48.358;10.746;2023-07-20T10:47:01;5.00;;;4.70;;
10013;SDS011;45684;48.358;10.746;2023-07-20T10:49:32;4.63;;;4.25;;
10013;SDS011;45684;48.358;10.746;2023-07-20T10:52:04;4.53;;;4.18;;
10013;SDS011;45684;48.358;10.746;2023-07-20T10:54:46;4.70;;;4.40;;
10013;SDS011;45684;48.358;10.746;2023-07-20T10:57:21;5.32;;;4.93;;
10013;SDS011;45684;48.358;10.746;2023-07-20T10:59:52;4.82;;;4.53;;
10013;SDS011;45684;48.358;10.746;2023-07-20T11:02:41;4.90;;;4.50;;
10013;SDS011;45684;48.358;10.746;2023-07-20T11:08:04;5.00;;;4.70;;
10013;SDS011;45684;48.358;10.746;2023-07-20T11:10:34;4.78;;;4.57;;
10013;SDS011;45684;48.358;10.746;2023-07-20T11:13:21;5.38;;;4.95;;
10013;SDS011;45684;48.358;10.746;2023-07-20T11:18:37;5.10;;;4.60;;
10013;SDS011;45684;48.358;10.746;2023-07-20T11:21:10;5.13;;;4.63;;
10013;SDS011;45684;48.358;10.746;2023-07-20T11:23:38;4.90;;;4.53;;
10013;SDS011;45684;48.358;10.746;2023-07-20T11:26:07;5.15;;;4.78;;
10013;SDS011;45684;48.358;10.746;2023-07-20T11:28:36;4.47;;;4.28;;
10013;SDS011;45684;48.358;10.746;2023-07-20T11:31:04;4.72;;;4.43;;
10013;SDS011;45684;48.358;10.746;2023-07-20T11:33:33;4.10;;;3.90;;
10013;SDS011;45684;48.358;10.746;2023-07-20T11:36:01;4.72;;;4.45;;
10013;SDS011;45684;48.358;10.746;2023-07-20T11:38:49;4.60;;;4.28;;
10013;SDS011;45684;48.358;10.746;2023-07-20T11:41:16;4.85;;;4.45;;
10013;SDS011;45684;48.358;10.746;2023-07-20T11:43:44;4.60;;;4.40;;
10013;SDS011;45684;48.358;10.746;2023-07-20T11:46:12;4.75;;;4.40;;
10013;SDS011;45684;48.358;10.746;2023-07-20T11:48:43;5.20;;;4.80;;
10013;SDS011;45684;48.358;10.746;2023-07-20T11:51:13;4.60;;;4.40;;
10013;SDS011;45684;48.358;10.746;2023-07-20T11:53:42;4.22;;;3.97;;
10013;SDS011;45684;48.358;10.746;2023-07-20T11:56:11;4.97;;;4.63;;
10013;SDS011;45684;48.358;10.746;2023-07-20T11:58:41;4.80;;;4.40;;
10013;SDS011;45684;48.358;10.746;2023-07-20T12:01:11;4.85;;;4.53;;
10013;SDS011;45684;48.358;10.746;2023-07-20T12:03:42;4.90;;;4.68;;
10013;SDS011;45684;48.358;10.746;2023-07-20T12:06:11;5.15;;;4.22;;
10013;SDS011;45684;48.358;10.746;2023-07-20T12:08:41;4.65;;;4.35;;
10013;SDS011;45684;48.358;10.746;2023-07-20T12:11:10;5.03;;;4.43;;
10013;SDS011;45684;48.358;10.746;2023-07-20T12:13:38;7.68;;;4.78;;
10013;SDS011;45684;48.358;10.746;2023-07-20T12:16:11;4.72;;;4.43;;
10013;SDS011;45684;48.358;10.746;2023-07-20T12:18:41;5.35;;;4.35;;
10013;SDS011;45684;48.358;10.746;2023-07-20T12:21:10;5.00;;;4.70;;
10013;SDS011;45684;48.358;10.746;2023-07-20T12:23:39;4.40;;;4.10;;
10013;SDS011;45684;48.358;10.746;2023-07-20T12:26:08;3.95;;;3.70;;
10013;SDS011;45684;48.358;10.746;2023-07-20T12:28:40;4.35;;;4.05;;
10013;SDS011;45684;48.358;10.746;2023-07-20T12:31:08;4.75;;;4.45;;
10013;SDS011;45684;48.358;10.746;2023-07-20T12:33:37;4.93;;;4.70;;
10013;SDS011;45684;48.358;10.746;2023-07-20T12:36:06;4.75;;;4.55;;
10013;SDS011;45684;48.358;10.746;2023-07-20T12:38:35;4.82;;;4.50;;
10013;SDS011;45684;48.358;10.746;2023-07-20T12:41:03;5.75;;;5.38;;
10013;SDS011;45684;48.358;10.746;2023-07-20T12:43:31;5.18;;;4.85;;
10013;SDS011;45684;48.358;10.746;2023-07-20T12:45:59;5.15;;;4.90;;
10013;SDS011;45684;48.358;10.746;2023-07-20T12:48:27;5.03;;;4.80;;
10013;SDS011;45684;48.358;10.746;2023-07-20T12:50:55;5.07;;;4.68;;
10013;SDS011;45684;48.358;10.746;2023-07-20T12:53:24;4.50;;;4.20;;
10013;SDS011;45684;48.358;10.746;2023-07-20T12:55:52;4.90;;;4.60;;
10013;SDS011;45684;48.358;10.746;2023-07-20T12:58:20;5.18;;;4.95;;
10013;SDS011;45684;48.358;10.746;2023-07-20T13:00:48;5.45;;;5.15;;
10013;SDS011;45684;48.358;10.746;2023-07-20T13:03:16;7.07;;;5.30;;
10013;SDS011;45684;48.358;10.746;2023-07-20T13:05:48;5.05;;;4.65;;
10013;SDS011;45684;48.358;10.746;2023-07-20T13:08:19;5.50;;;5.10;;
10013;SDS011;45684;48.358;10.746;2023-07-20T13:10:48;4.60;;;4.30;;
10013;SDS011;45684;48.358;10.746;2023-07-20T13:13:16;4.82;;;4.53;;
10013;SDS011;45684;48.358;10.746;2023-07-20T13:15:44;4.80;;;4.50;;
10013;SDS011;45684;48.358;10.746;2023-07-20T13:18:13;5.78;;;5.47;;
10013;SDS011;45684;48.358;10.746;2023-07-20T13:20:42;4.65;;;4.35;;
10013;SDS011;45684;48.358;10.746;2023-07-20T13:23:09;4.93;;;4.63;;
10013;SDS011;45684;48.358;10.746;2023-07-20T13:25:37;5.03;;;4.60;;
10013;SDS011;45684;48.358;10.746;2023-07-20T13:28:07;5.13;;;4.82;;
10013;SDS011;45684;48.358;10.746;2023-07-20T13:30:35;4.85;;;4.55;;
10013;SDS011;45684;48.358;10.746;2023-07-20T13:33:06;4.68;;;4.35;;
10013;SDS011;45684;48.358;10.746;2023-07-20T13:35:38;4.50;;;4.20;;
10013;SDS011;45684;48.358;10.746;2023-07-20T13:38:09;3.85;;;3.60;;
10013;SDS011;45684;48.358;10.746;2023-07-20T13:40:37;4.70;;;4.50;;
10013;SDS011;45684;48.358;10.746;2023-07-20T13:43:06;4.57;;;4.38;;
10013;SDS011;45684;48.358;10.746;2023-07-20T13:45:34;4.22;;;4.03;;
10013;SDS011;45684;48.358;10.746;2023-07-20T13:48:02;4.68;;;4.47;;
10013;SDS011;45684;48.358;10.746;2023-07-20T13:50:32;4.38;;;4.18;;
10013;SDS011;45684;48.358;10.746;2023-07-20T13:53:03;4.28;;;4.00;;
10013;SDS011;45684;48.358;10.746;2023-07-20T13:55:34;4.45;;;4.25;;
10013;SDS011;45684;48.358;10.746;2023-07-20T13:58:07;4.60;;;4.40;;
10013;SDS011;45684;48.358;10.746;2023-07-20T14:00:38;4.45;;;4.25;;
10013;SDS011;45684;48.358;10.746;2023-07-20T14:03:06;4.50;;;4.20;;
10013;SDS011;45684;48.358;10.746;2023-07-20T14:05:37;4.47;;;4.22;;
10013;SDS011;45684;48.358;10.746;2023-07-20T14:08:07;4.15;;;3.95;;
10013;SDS011;45684;48.358;10.746;2023-07-20T14:10:35;4.22;;;4.03;;
10013;SDS011;45684;48.358;10.746;2023-07-20T14:13:25;4.10;;;3.80;;
10013;SDS011;45684;48.358;10.746;2023-07-20T14:16:11;4.47;;;4.10;;
10013;SDS011;45684;48.358;10.746;2023-07-20T14:18:39;4.80;;;4.50;;
10013;SDS011;45684;48.358;10.746;2023-07-20T14:21:07;4.32;;;4.10;;
10013;SDS011;45684;48.358;10.746;2023-07-20T14:23:35;4.75;;;4.35;;
10013;SDS011;45684;48.358;10.746;2023-07-20T14:26:03;4.70;;;4.38;;
10013;SDS011;45684;48.358;10.746;2023-07-20T14:28:37;4.88;;;4.57;;
10013;SDS011;45684;48.358;10.746;2023-07-20T14:31:05;4.30;;;4.10;;
10013;SDS011;45684;48.358;10.746;2023-07-20T14:33:33;4.68;;;4.38;;
10013;SDS011;45684;48.358;10.746;2023-07-20T14:36:02;4.32;;;4.10;;
10013;SDS011;45684;48.358;10.746;2023-07-20T14:38:31;4.55;;;4.30;;
10013;SDS011;45684;48.358;10.746;2023-07-20T14:41:00;4.10;;;3.90;;
10013;SDS011;45684;48.358;10.746;2023-07-20T14:43:29;4.22;;;3.92;;
10013;SDS011;45684;48.358;10.746;2023-07-20T14:45:58;4.10;;;3.88;;
10013;SDS011;45684;48.358;10.746;2023-07-20T14:48:26;3.90;;;3.70;;
10013;SDS011;45684;48.358;10.746;2023-07-20T14:50:54;4.00;;;3.80;;
10013;SDS011;45684;48.358;10.746;2023-07-20T14:53:30;4.00;;;3.80;;
10013;SDS011;45684;48.358;10.746;2023-07-20T14:56:02;5.68;;;4.00;;
10013;SDS011;45684;48.358;10.746;2023-07-20T14:58:31;4.47;;;4.07;;
10013;SDS011;45684;48.358;10.746;2023-07-20T15:01:02;4.20;;;4.00;;
10013;SDS011;45684;48.358;10.746;2023-07-20T15:03:55;4.20;;;3.97;;
10013;SDS011;45684;48.358;10.746;2023-07-20T15:06:25;15.57;;;5.32;;